createdAt,value
2022-08-10T00:01:10.619Z,0.63
2022-08-10T00:03:53.466Z,0.45
2022-08-10T00:06:36.224Z,0.60
2022-08-10T00:09:19.096Z,0.60
2022-08-10T00:12:02.125Z,0.68
2022-08-10T00:14:46.481Z,0.70
2022-08-10T00:17:29.191Z,1.00
2022-08-10T00:20:12.929Z,0.60
2022-08-10T00:22:57.526Z,0.60
2022-08-10T00:25:41.017Z,0.63
2022-08-10T00:28:23.839Z,0.50
2022-08-10T00:31:08.281Z,0.60
2022-08-10T00:33:51.111Z,0.77
2022-08-10T00:36:33.922Z,0.57
2022-08-10T00:39:16.749Z,0.70
2022-08-10T00:42:01.957Z,0.60
2022-08-10T00:44:50.702Z,0.60
2022-08-10T00:47:37.246Z,0.52
2022-08-10T00:50:20.716Z,0.60
2022-08-10T00:53:03.511Z,0.43
2022-08-10T00:57:14.669Z,0.75
2022-08-10T00:58:49.328Z,0.60
2022-08-10T01:02:09.376Z,0.65
2022-08-10T01:05:00.983Z,0.60
2022-08-10T01:08:05.764Z,0.50
2022-08-10T01:10:54.546Z,0.50
2022-08-10T01:13:39.883Z,0.50
2022-08-10T01:16:39.205Z,0.47
2022-08-10T01:19:30.637Z,0.60
2022-08-10T01:22:29.098Z,0.50
2022-08-10T01:25:21.495Z,0.50
2022-08-10T01:28:09.210Z,0.60
2022-08-10T01:30:55.375Z,0.50
2022-08-10T01:34:02.007Z,0.60
2022-08-10T01:37:04.217Z,0.40
2022-08-10T01:39:49.558Z,0.50
2022-08-10T01:42:34.296Z,0.60
2022-08-10T01:45:17.466Z,0.57
2022-08-10T01:48:22.612Z,0.50
2022-08-10T01:51:11.573Z,0.60
2022-08-10T01:53:56.468Z,0.60
2022-08-10T01:56:40.896Z,0.60
2022-08-10T01:59:25.277Z,0.60
2022-08-10T02:02:10.543Z,0.80
2022-08-10T02:04:55.795Z,0.60
2022-08-10T02:07:39.920Z,0.68
2022-08-10T02:10:23.622Z,0.60
2022-08-10T02:13:07.202Z,0.60
2022-08-10T02:16:01.941Z,0.88
2022-08-10T02:18:46.489Z,0.52
2022-08-10T02:22:37.456Z,0.45
2022-08-10T02:24:47.504Z,0.57
2022-08-10T02:27:30.631Z,0.60
2022-08-10T02:30:13.762Z,0.70
2022-08-10T02:32:57.756Z,0.55
2022-08-10T02:35:54.224Z,0.68
2022-08-10T02:38:59.531Z,0.80
2022-08-10T02:45:12.376Z,0.60
2022-08-10T02:45:22.691Z,0.70
2022-08-10T02:47:58.393Z,0.45
2022-08-10T02:50:43.076Z,0.65
2022-08-10T02:53:54.863Z,0.80
2022-08-10T02:56:36.879Z,0.60
2022-08-10T02:59:24.615Z,0.70
2022-08-10T03:02:07.924Z,0.50
2022-08-10T03:04:57.591Z,0.60
2022-08-10T03:07:45.237Z,0.60
2022-08-10T03:10:29.394Z,0.68
2022-08-10T03:13:14.282Z,0.68
2022-08-10T03:15:57.383Z,0.52
2022-08-10T03:18:40.219Z,0.63
2022-08-10T03:21:29.952Z,0.60
2022-08-10T03:24:21.172Z,0.50
2022-08-10T03:27:13.633Z,0.50
2022-08-10T03:30:28.234Z,0.50
2022-08-10T03:33:01.585Z,0.75
2022-08-10T03:35:44.195Z,0.50
2022-08-10T03:38:51.570Z,0.68
2022-08-10T03:41:36.750Z,0.68
2022-08-10T03:44:20.661Z,0.70
2022-08-10T03:47:16.177Z,0.80
2022-08-10T03:50:25.846Z,0.80
2022-08-10T03:53:03.362Z,0.50
2022-08-10T03:56:28.333Z,0.80
2022-08-10T03:58:49.080Z,0.60
2022-08-10T04:02:45.243Z,0.60
2022-08-10T04:04:36.142Z,0.70
2022-08-10T04:07:19.662Z,0.52
2022-08-10T04:10:02.684Z,0.60
2022-08-10T04:12:45.865Z,0.70
2022-08-10T04:15:28.695Z,0.60
2022-08-10T04:18:11.457Z,0.57
2022-08-10T04:20:58.245Z,0.60
2022-08-10T04:23:43.066Z,0.50
2022-08-10T04:26:41.300Z,0.40
2022-08-10T04:29:24.062Z,0.50
2022-08-10T04:32:08.842Z,0.70
2022-08-10T04:34:53.026Z,0.70
2022-08-10T04:37:37.569Z,0.70
2022-08-10T04:40:31.313Z,0.65
2022-08-10T04:43:14.081Z,0.65
2022-08-10T04:45:56.826Z,0.70
2022-08-10T04:48:43.039Z,0.70
2022-08-10T04:51:42.415Z,0.60
2022-08-10T04:54:26.729Z,1.50
2022-08-10T04:57:12.627Z,1.20
2022-08-10T04:59:55.422Z,0.80
2022-08-10T05:02:38.145Z,0.88
2022-08-10T05:05:20.942Z,1.50
2022-08-10T05:08:03.827Z,1.50
2022-08-10T05:10:47.979Z,1.55
2022-08-10T05:13:30.728Z,1.65
2022-08-10T05:16:18.589Z,1.65
2022-08-10T05:19:14.895Z,1.80
2022-08-10T05:22:04.458Z,1.63
2022-08-10T05:24:47.803Z,2.03
2022-08-10T05:27:32.048Z,1.75
2022-08-10T05:30:15.971Z,1.50
2022-08-10T05:33:02.597Z,1.55
2022-08-10T05:35:56.404Z,1.50
2022-08-10T05:38:41.005Z,1.42
2022-08-10T05:41:24.136Z,1.30
2022-08-10T05:44:08.619Z,1.30
2022-08-10T05:46:51.594Z,1.08
2022-08-10T05:49:34.425Z,1.65
2022-08-10T05:52:17.640Z,1.35
2022-08-10T05:55:02.884Z,1.40
2022-08-10T05:57:46.006Z,1.45
2022-08-10T06:00:37.164Z,1.20
2022-08-10T06:03:25.861Z,1.42
2022-08-10T06:06:09.653Z,1.50
2022-08-10T06:08:53.196Z,1.40
2022-08-10T06:12:27.646Z,1.30
2022-08-10T06:15:00.269Z,1.50
2022-08-10T06:17:59.092Z,1.50
2022-08-10T06:20:46.103Z,1.42
2022-08-10T06:23:29.881Z,1.10
2022-08-10T06:26:14.858Z,1.20
2022-08-10T06:29:04.173Z,1.10
2022-08-10T06:31:50.122Z,1.20
2022-08-10T06:34:36.557Z,1.20
2022-08-10T06:37:20.369Z,1.02
2022-08-10T06:40:03.272Z,1.27
2022-08-10T06:42:47.970Z,1.17
2022-08-10T06:45:32.692Z,1.30
2022-08-10T06:48:21.303Z,1.00
2022-08-10T06:51:09.453Z,0.95
2022-08-10T06:53:55.228Z,1.00
2022-08-10T06:56:50.857Z,0.90
2022-08-10T06:59:46.357Z,0.95
2022-08-10T07:02:37.993Z,0.93
2022-08-10T07:05:21.706Z,1.08
2022-08-10T07:08:06.266Z,1.00
2022-08-10T07:10:49.995Z,1.00
2022-08-10T07:14:15.427Z,0.88
2022-08-10T07:16:36.429Z,0.93
2022-08-10T07:19:19.766Z,0.90
2022-08-10T07:22:02.983Z,0.93
2022-08-10T07:24:48.464Z,0.90
2022-08-10T07:27:39.144Z,0.80
2022-08-10T07:30:37.970Z,0.90
2022-08-10T07:33:21.959Z,0.90
2022-08-10T07:36:06.928Z,0.85
2022-08-10T07:38:51.243Z,0.90
2022-08-10T07:41:35.863Z,0.80
2022-08-10T07:44:19.563Z,0.85
2022-08-10T07:47:04.200Z,0.80
2022-08-10T07:49:48.322Z,0.80
2022-08-10T07:52:33.678Z,0.75
2022-08-10T07:55:17.431Z,0.63
2022-08-10T07:58:02.999Z,0.75
2022-08-10T08:00:46.835Z,0.60
2022-08-10T08:03:30.571Z,0.60
2022-08-10T08:06:13.811Z,0.82
2022-08-10T08:08:58.655Z,0.80
2022-08-10T08:11:43.549Z,0.70
2022-08-10T08:14:28.487Z,0.80
2022-08-10T08:17:12.135Z,0.70
2022-08-10T08:19:58.474Z,0.80
2022-08-10T08:24:08.091Z,0.63
2022-08-10T08:25:45.324Z,0.77
2022-08-10T08:28:28.255Z,0.50
2022-08-10T08:31:12.914Z,0.70
2022-08-10T08:33:56.476Z,0.60
2022-08-10T08:36:40.635Z,0.80
2022-08-10T08:39:23.521Z,1.02
2022-08-10T08:42:22.047Z,0.70
2022-08-10T08:45:09.943Z,0.60
2022-08-10T08:48:11.271Z,0.65
2022-08-10T08:51:08.631Z,0.57
2022-08-10T08:54:01.295Z,0.63
2022-08-10T08:56:50.914Z,0.65
2022-08-10T08:59:44.034Z,0.60
2022-08-10T09:02:34.985Z,0.68
2022-08-10T09:05:24.286Z,0.80
2022-08-10T09:08:23.466Z,0.70
2022-08-10T09:11:15.053Z,0.60
2022-08-10T09:13:59.904Z,0.95
2022-08-10T09:16:45.872Z,0.65
2022-08-10T09:19:35.509Z,0.60
2022-08-10T09:22:25.252Z,0.70
2022-08-10T09:25:15.728Z,0.52
2022-08-10T09:28:01.844Z,0.70
2022-08-10T09:31:11.040Z,0.68
2022-08-10T09:36:28.988Z,0.60
2022-08-10T09:37:14.479Z,0.50
2022-08-10T09:40:55.867Z,0.52
2022-08-10T09:43:25.585Z,0.75
2022-08-10T09:46:12.925Z,0.60
2022-08-10T09:49:04.706Z,0.60
2022-08-10T09:51:50.210Z,0.50
2022-08-10T09:54:40.346Z,0.73
2022-08-10T09:57:45.004Z,0.60
2022-08-10T10:00:35.929Z,0.68
2022-08-10T10:03:28.807Z,0.60
2022-08-10T10:06:14.000Z,0.60
2022-08-10T10:09:10.303Z,0.50
2022-08-10T10:12:05.309Z,0.85
2022-08-10T10:15:24.303Z,0.70
2022-08-10T10:18:19.548Z,0.57
2022-08-10T10:21:05.740Z,0.70
2022-08-10T10:24:20.274Z,0.47
2022-08-10T10:27:03.628Z,0.60
2022-08-10T10:29:56.815Z,0.60
2022-08-10T10:32:49.370Z,0.70
2022-08-10T10:35:36.714Z,0.65
2022-08-10T10:38:22.772Z,0.95
2022-08-10T10:41:11.755Z,0.60
2022-08-10T10:43:59.041Z,0.40
2022-08-10T10:46:51.517Z,0.10
2022-08-10T10:49:42.675Z,0.20
2022-08-10T10:52:33.411Z,0.20
2022-08-10T10:55:18.803Z,0.10
2022-08-10T10:58:05.941Z,0.10
2022-08-10T11:00:53.360Z,0.10
2022-08-10T11:03:46.477Z,0.20
2022-08-10T11:06:40.275Z,0.10
2022-08-10T11:10:04.899Z,0.10
2022-08-10T11:12:42.164Z,0.20
2022-08-10T11:15:32.496Z,0.10
2022-08-10T11:18:22.604Z,0.15
2022-08-10T11:21:14.513Z,0.10
2022-08-10T11:24:48.089Z,0.10
2022-08-10T11:27:09.811Z,0.10
2022-08-10T11:30:07.649Z,0.10
2022-08-10T11:33:01.776Z,0.10
2022-08-10T11:35:47.186Z,0.10
2022-08-10T11:38:47.198Z,0.10
2022-08-10T11:42:09.838Z,0.10
2022-08-10T11:44:48.963Z,0.10
2022-08-10T11:47:38.789Z,0.10
2022-08-10T11:50:23.758Z,0.10
2022-08-10T11:53:11.221Z,0.10
2022-08-10T11:55:56.589Z,0.10
2022-08-10T11:59:00.316Z,0.10
2022-08-10T12:01:45.588Z,0.20
2022-08-10T12:04:29.025Z,0.10
2022-08-10T12:10:05.627Z,0.13
2022-08-10T12:10:15.554Z,0.10
2022-08-10T12:13:04.059Z,0.10
2022-08-10T12:15:51.897Z,0.10
2022-08-10T12:18:45.906Z,0.10
2022-08-10T12:21:30.347Z,0.10
2022-08-10T12:24:19.671Z,0.20
2022-08-10T12:27:04.559Z,0.10
2022-08-10T12:29:51.396Z,0.10
2022-08-10T12:32:41.644Z,0.10
2022-08-10T12:35:28.977Z,0.10
2022-08-10T12:38:16.076Z,0.20
2022-08-10T12:41:00.845Z,0.10
2022-08-10T12:44:05.187Z,0.10
2022-08-10T12:46:53.080Z,0.10
2022-08-10T12:49:38.594Z,0.10
2022-08-10T12:52:30.303Z,0.10
2022-08-10T12:55:13.656Z,0.10
2022-08-10T12:57:57.466Z,0.10
2022-08-10T13:01:05.858Z,0.10
2022-08-10T13:04:23.517Z,0.20
2022-08-10T13:06:51.392Z,0.20
2022-08-10T13:09:55.650Z,0.22
2022-08-10T13:12:41.400Z,0.20
2022-08-10T13:15:47.951Z,0.10
2022-08-10T13:18:33.560Z,0.10
2022-08-10T13:21:20.551Z,0.13
2022-08-10T13:24:06.882Z,0.10
2022-08-10T13:27:24.507Z,0.10
2022-08-10T13:30:01.986Z,0.10
2022-08-10T13:32:50.558Z,0.10
2022-08-10T13:35:34.572Z,0.10
2022-08-10T13:38:23.055Z,0.10
2022-08-10T13:41:10.282Z,0.10
2022-08-10T13:43:57.270Z,0.10
2022-08-10T13:46:42.249Z,0.20
2022-08-10T13:49:25.283Z,0.10
2022-08-10T13:52:12.607Z,0.10
2022-08-10T13:54:56.745Z,0.10
2022-08-10T13:57:43.977Z,0.10
2022-08-10T14:00:36.676Z,0.10
2022-08-10T14:03:21.451Z,0.10
2022-08-10T14:06:07.040Z,0.10
2022-08-10T14:08:51.367Z,0.10
2022-08-10T14:11:34.574Z,0.20
2022-08-10T14:14:19.240Z,0.10
2022-08-10T14:17:04.513Z,0.10
2022-08-10T14:19:51.279Z,0.10
2022-08-10T14:22:41.973Z,0.10
2022-08-10T14:25:24.937Z,0.10
2022-08-10T14:28:07.756Z,0.15
2022-08-10T14:30:56.761Z,0.10
2022-08-10T14:33:44.588Z,0.10
2022-08-10T14:36:33.200Z,0.10
2022-08-10T14:39:23.330Z,0.10
2022-08-10T14:42:21.419Z,0.10
2022-08-10T14:45:12.976Z,0.10
2022-08-10T14:48:00.752Z,0.10
2022-08-10T14:50:54.930Z,0.10
2022-08-10T14:53:39.543Z,0.10
2022-08-10T14:56:26.033Z,0.10
2022-08-10T14:59:09.790Z,0.10
2022-08-10T15:02:00.623Z,0.10
2022-08-10T15:05:01.596Z,0.13
2022-08-10T15:07:58.869Z,0.10
2022-08-10T15:10:42.756Z,0.30
2022-08-10T15:13:35.558Z,0.10
2022-08-10T15:16:19.241Z,0.20
2022-08-10T15:19:02.531Z,0.10
2022-08-10T15:22:35.934Z,0.10
2022-08-10T15:25:19.041Z,0.10
2022-08-10T15:28:06.237Z,0.10
2022-08-10T15:30:51.605Z,0.15
2022-08-10T15:34:04.333Z,0.10
2022-08-10T15:37:36.910Z,0.10
2022-08-10T15:40:25.729Z,0.10
2022-08-10T15:43:34.513Z,0.10
2022-08-10T15:46:33.914Z,0.10
2022-08-10T15:49:20.931Z,0.10
2022-08-10T15:52:05.171Z,0.10
2022-08-10T15:54:54.558Z,0.10
2022-08-10T15:57:44.014Z,0.10
2022-08-10T16:00:27.098Z,0.10
2022-08-10T16:03:14.767Z,0.10
2022-08-10T16:06:00.629Z,0.10
2022-08-10T16:08:57.096Z,0.10
2022-08-10T16:11:57.128Z,0.10
2022-08-10T16:14:45.870Z,0.10
2022-08-10T16:17:29.303Z,0.10
2022-08-10T16:20:12.440Z,0.10
2022-08-10T16:22:56.771Z,0.10
2022-08-10T16:25:47.802Z,0.10
2022-08-10T16:28:38.174Z,0.10
2022-08-10T16:31:23.346Z,1.08
2022-08-10T16:34:08.624Z,1.00
2022-08-10T16:36:53.294Z,0.90
2022-08-10T16:39:57.601Z,0.68
2022-08-10T16:42:45.026Z,0.90
2022-08-10T16:45:31.639Z,1.00
2022-08-10T16:48:48.512Z,1.48
2022-08-10T16:51:22.375Z,1.27
2022-08-10T16:54:06.127Z,0.90
2022-08-10T16:56:49.734Z,0.70
2022-08-10T16:59:35.169Z,1.20
2022-08-10T17:02:19.595Z,0.70
2022-08-10T17:05:04.334Z,0.70
2022-08-10T17:07:47.839Z,0.70
2022-08-10T17:10:31.123Z,0.73
2022-08-10T17:13:15.228Z,0.80
2022-08-10T17:15:59.807Z,0.65
2022-08-10T17:18:45.131Z,0.90
2022-08-10T17:21:32.254Z,0.77
2022-08-10T17:24:15.328Z,1.00
2022-08-10T17:26:59.170Z,0.80
2022-08-10T17:30:07.888Z,0.90
2022-08-10T17:32:57.707Z,0.88
2022-08-10T17:35:41.740Z,1.10
2022-08-10T17:38:27.043Z,0.85
2022-08-10T17:41:12.533Z,0.88
2022-08-10T17:44:02.718Z,0.93
2022-08-10T17:46:46.438Z,0.93
2022-08-10T17:49:33.853Z,1.20
2022-08-10T17:52:21.045Z,1.05
2022-08-10T17:55:06.975Z,0.95
2022-08-10T17:57:50.602Z,0.85
2022-08-10T18:00:45.920Z,1.20
2022-08-10T18:03:30.468Z,1.45
2022-08-10T18:06:14.218Z,1.80
2022-08-10T18:08:58.180Z,1.70
2022-08-10T18:11:44.491Z,1.08
2022-08-10T18:14:29.819Z,1.10
2022-08-10T18:17:14.803Z,1.48
2022-08-10T18:20:00.296Z,1.00
2022-08-10T18:22:44.519Z,0.93
2022-08-10T18:25:32.064Z,1.00
2022-08-10T18:28:18.260Z,0.90
2022-08-10T18:31:02.701Z,1.00
2022-08-10T18:33:46.774Z,1.02
2022-08-10T18:36:30.520Z,0.95
2022-08-10T18:39:15.235Z,0.93
2022-08-10T18:42:05.599Z,1.00
2022-08-10T18:44:53.282Z,0.75
2022-08-10T18:47:40.410Z,1.05
2022-08-10T18:50:44.053Z,1.17
2022-08-10T18:53:31.439Z,1.08
2022-08-10T18:56:18.859Z,1.38
2022-08-10T18:59:19.506Z,1.30
2022-08-10T19:02:39.981Z,1.20
2022-08-10T19:05:35.110Z,1.02
2022-08-10T19:08:30.879Z,1.27
2022-08-10T19:11:18.967Z,1.20
2022-08-10T19:14:05.888Z,1.10
2022-08-10T19:16:55.460Z,1.48
2022-08-10T19:19:42.878Z,1.10
2022-08-10T19:22:28.161Z,1.10
2022-08-10T19:25:18.038Z,0.90
2022-08-10T19:28:27.373Z,0.90
2022-08-10T19:31:12.261Z,1.20
2022-08-10T19:34:11.579Z,1.00
2022-08-10T19:36:59.435Z,0.93
2022-08-10T19:39:51.495Z,0.98
2022-08-10T19:42:38.469Z,1.10
2022-08-10T19:45:59.171Z,1.10
2022-08-10T19:48:30.902Z,1.23
2022-08-10T19:51:15.767Z,1.33
2022-08-10T19:54:03.299Z,1.00
2022-08-10T19:56:55.912Z,1.30
2022-08-10T20:00:15.812Z,1.13
2022-08-10T20:03:00.676Z,1.20
2022-08-10T20:06:12.934Z,1.45
2022-08-10T20:08:56.721Z,0.90
2022-08-10T20:11:44.704Z,0.85
2022-08-10T20:14:34.879Z,1.38
2022-08-10T20:17:24.363Z,1.02
2022-08-10T20:20:09.968Z,1.20
2022-08-10T20:23:00.167Z,1.00
2022-08-10T20:25:45.027Z,1.00
2022-08-10T20:28:32.746Z,1.20
2022-08-10T20:31:20.653Z,1.13
2022-08-10T20:34:06.630Z,1.20
2022-08-10T20:36:55.222Z,1.10
2022-08-10T20:39:47.639Z,1.02
2022-08-10T20:42:34.943Z,1.20
2022-08-10T20:45:22.533Z,1.10
2022-08-10T20:48:09.625Z,1.23
2022-08-10T20:50:56.744Z,1.00
2022-08-10T20:53:45.175Z,0.90
2022-08-10T20:56:34.291Z,1.30
2022-08-10T20:59:33.546Z,1.20
2022-08-10T21:02:27.944Z,1.10
2022-08-10T21:05:17.851Z,1.08
2022-08-10T21:08:07.001Z,1.00
2022-08-10T21:10:59.043Z,1.30
2022-08-10T21:13:54.774Z,1.05
2022-08-10T21:16:47.360Z,1.23
2022-08-10T21:19:39.728Z,1.23
2022-08-10T21:22:40.491Z,1.25
2022-08-10T21:25:41.675Z,1.10
2022-08-10T21:28:40.508Z,1.25
2022-08-10T21:31:41.391Z,1.10
2022-08-10T21:34:31.829Z,1.10
2022-08-10T21:37:18.747Z,1.15
2022-08-10T21:40:34.632Z,1.08
2022-08-10T21:43:59.205Z,1.20
2022-08-10T21:47:30.970Z,1.40
2022-08-10T21:50:36.790Z,1.10
2022-08-10T21:53:45.829Z,1.10
2022-08-10T21:56:50.374Z,1.30
2022-08-10T21:59:56.238Z,1.10
2022-08-10T22:02:58.083Z,1.13
2022-08-10T22:05:58.951Z,1.20
2022-08-10T22:09:02.302Z,1.20
2022-08-10T22:12:08.194Z,1.40
2022-08-10T22:15:09.768Z,1.48
2022-08-10T22:18:10.226Z,1.17
2022-08-10T22:21:19.478Z,1.33
2022-08-10T22:24:31.815Z,1.20
2022-08-10T22:27:47.123Z,1.38
2022-08-10T22:31:15.127Z,1.08
2022-08-10T22:34:13.699Z,1.10
2022-08-10T22:37:32.225Z,1.10
2022-08-10T22:40:35.781Z,1.30
2022-08-10T22:43:42.357Z,1.20
2022-08-10T22:46:43.800Z,1.15
2022-08-10T22:49:25.637Z,1.15
2022-08-10T22:52:10.842Z,1.10
2022-08-10T22:55:13.869Z,1.40
2022-08-10T22:58:14.122Z,1.27
2022-08-10T23:01:02.167Z,1.40
2022-08-10T23:03:47.029Z,1.20
2022-08-10T23:06:30.587Z,1.30
2022-08-10T23:09:14.325Z,1.30
2022-08-10T23:11:59.186Z,1.60
2022-08-10T23:14:59.959Z,1.10
2022-08-10T23:18:05.892Z,1.23
2022-08-10T23:20:49.845Z,1.60
2022-08-10T23:23:36.452Z,1.20
2022-08-10T23:26:24.088Z,1.30
2022-08-10T23:29:11.859Z,1.50
2022-08-10T23:32:06.983Z,1.40
2022-08-10T23:36:29.929Z,1.02
2022-08-10T23:37:56.102Z,1.30
2022-08-10T23:40:39.309Z,1.10
2022-08-10T23:43:32.085Z,1.58
2022-08-10T23:46:24.235Z,1.33
2022-08-10T23:49:07.417Z,1.08
2022-08-10T23:51:56.186Z,1.20
2022-08-10T23:54:47.606Z,1.20
2022-08-10T23:57:31.167Z,1.20
